Time;durP1;ratioP1;P1;durP2;ratioP2;P2;SDS_P1;SDS_P2;PMS_P1;PMS_P2;Temp;Humidity;BMP_temperature;BMP_pressure;BME280_temperature;BME280_humidity;BME280_pressure;Samples;Min_cycle;Max_cycle;Signal;HPM_P1;HPM_P2
2022/04/13 00:00:37;;;;;;;11.98;5.80;;;13.20;99.90;;;;;;5038975;28;20090;-72
2022/04/13 00:03:03;;;;;;;8.73;5.28;;;13.10;99.90;;;;;;5041991;28;20038;-74
2022/04/13 00:05:29;;;;;;;8.18;5.50;;;13.10;99.90;;;;;;5042209;28;20045;-74
2022/04/13 00:07:56;;;;;;;7.80;5.20;;;13.00;99.90;;;;;;5042398;28;20037;-74
2022/04/13 00:10:22;;;;;;;10.25;4.95;;;12.90;99.90;;;;;;5043533;28;20111;-74
2022/04/13 00:12:50;;;;;;;9.30;5.00;;;12.90;99.90;;;;;;5045396;28;20033;-74
2022/04/13 00:15:16;;;;;;;9.13;5.38;;;12.80;99.90;;;;;;5035298;28;20049;-74
2022/04/13 00:17:41;;;;;;;8.52;5.43;;;12.80;99.90;;;;;;5037328;28;20053;-75
2022/04/13 00:20:07;;;;;;;12.15;5.10;;;12.70;99.90;;;;;;5033551;28;20048;-74
2022/04/13 00:22:33;;;;;;;8.27;5.20;;;12.70;99.90;;;;;;5041154;28;20048;-74
2022/04/13 00:24:59;;;;;;;8.35;5.35;;;12.70;99.90;;;;;;5032922;28;20049;-74
2022/04/13 00:27:24;;;;;;;10.10;5.50;;;12.60;99.90;;;;;;5037042;28;20429;-74
2022/04/13 00:29:50;;;;;;;9.98;6.07;;;12.60;99.90;;;;;;5041338;28;20073;-74
2022/04/13 00:32:15;;;;;;;11.48;5.80;;;12.60;99.90;;;;;;5043381;28;20049;-74
2022/04/13 00:34:41;;;;;;;8.43;5.55;;;12.60;99.90;;;;;;5040891;28;20496;-74
2022/04/13 00:37:07;;;;;;;9.48;5.28;;;12.60;99.90;;;;;;5039665;28;20048;-74
2022/04/13 00:39:33;;;;;;;9.43;6.20;;;12.60;99.90;;;;;;5033932;28;20455;-74
2022/04/13 00:42:03;;;;;;;10.77;5.28;;;12.60;99.90;;;;;;5036616;28;20041;-74
2022/04/13 00:44:29;;;;;;;10.75;5.78;;;12.60;99.90;;;;;;5037002;28;20142;-74
2022/04/13 00:46:56;;;;;;;12.43;6.35;;;12.70;99.90;;;;;;5041181;28;20101;-74
2022/04/13 00:49:23;;;;;;;10.02;5.88;;;12.70;99.90;;;;;;5036079;28;20131;-74
2022/04/13 00:51:49;;;;;;;12.63;6.43;;;12.70;99.90;;;;;;5039492;28;20107;-74
2022/04/13 00:54:17;;;;;;;10.32;5.60;;;12.70;99.90;;;;;;5029840;28;20053;-74
2022/04/13 00:56:47;;;;;;;9.55;5.80;;;12.70;99.90;;;;;;5035921;28;20419;-72
2022/04/13 00:59:14;;;;;;;12.60;6.75;;;12.70;99.90;;;;;;5034974;28;20103;-74
2022/04/13 01:01:49;;;;;;;9.30;6.10;;;12.70;99.90;;;;;;5040678;28;20065;-74
2022/04/13 01:04:16;;;;;;;12.48;6.32;;;12.70;99.90;;;;;;5038549;28;20087;-74
2022/04/13 01:06:43;;;;;;;13.10;7.00;;;12.70;99.90;;;;;;5038197;28;20484;-74
2022/04/13 01:09:11;;;;;;;12.15;6.53;;;12.80;99.90;;;;;;5035654;28;20045;-74
2022/04/13 01:11:37;;;;;;;9.80;6.65;;;12.80;99.90;;;;;;5043561;28;20046;-74
2022/04/13 01:14:03;;;;;;;8.82;6.40;;;12.80;99.90;;;;;;5046181;28;20040;-74
2022/04/13 01:16:28;;;;;;;10.00;6.22;;;12.70;99.90;;;;;;5037489;28;20040;-74
2022/04/13 01:18:55;;;;;;;9.40;6.18;;;12.70;99.90;;;;;;5045029;28;20056;-74
2022/04/13 01:21:40;;;;;;;12.73;6.28;;;12.70;99.90;;;;;;5043160;28;20037;-74
2022/04/13 01:24:06;;;;;;;8.63;6.15;;;12.70;99.90;;;;;;5044586;28;20041;-74
2022/04/13 01:26:32;;;;;;;9.57;5.97;;;12.60;99.90;;;;;;5041162;28;20060;-74
2022/04/13 01:28:59;;;;;;;9.27;6.55;;;12.60;99.90;;;;;;5045096;28;20050;-74
2022/04/13 01:31:25;;;;;;;12.88;6.95;;;12.60;99.90;;;;;;5041812;28;20064;-74
2022/04/13 01:33:50;;;;;;;9.23;6.60;;;12.60;99.90;;;;;;5042235;28;20052;-74
2022/04/13 01:36:16;;;;;;;12.68;7.60;;;12.60;99.90;;;;;;5029522;28;20151;-74
2022/04/13 01:38:41;;;;;;;11.32;7.22;;;12.50;99.90;;;;;;5045380;28;20038;-74
2022/04/13 01:41:07;;;;;;;10.65;6.60;;;12.50;99.90;;;;;;5040917;28;20399;-74
2022/04/13 01:43:33;;;;;;;12.32;7.18;;;12.60;99.90;;;;;;5047147;28;20052;-74
2022/04/13 01:45:58;;;;;;;11.32;6.95;;;12.50;99.90;;;;;;5048123;28;20045;-74
2022/04/13 01:48:24;;;;;;;12.05;7.20;;;12.40;99.90;;;;;;5043302;28;20045;-74
2022/04/13 01:50:50;;;;;;;9.43;6.45;;;12.40;99.90;;;;;;5053771;28;20041;-74
2022/04/13 01:53:16;;;;;;;12.27;7.13;;;12.40;99.90;;;;;;5042987;28;20091;-74
2022/04/13 01:55:42;;;;;;;13.20;7.03;;;12.30;99.90;;;;;;5048364;28;20135;-74
2022/04/13 01:58:08;;;;;;;13.32;7.30;;;12.30;99.90;;;;;;5053673;28;20373;-73
2022/04/13 02:00:34;;;;;;;10.23;7.22;;;12.30;99.90;;;;;;5036425;28;20461;-74
2022/04/13 02:03:00;;;;;;;9.70;6.60;;;12.20;99.90;;;;;;5047739;28;20037;-74
2022/04/13 02:05:26;;;;;;;11.85;7.00;;;12.10;99.90;;;;;;5026429;28;20068;-72
2022/04/13 02:07:52;;;;;;;9.50;7.28;;;12.10;99.90;;;;;;5042708;28;20751;-71
2022/04/13 02:10:18;;;;;;;11.73;7.13;;;12.30;99.90;;;;;;5048360;28;20119;-74
2022/04/13 02:12:44;;;;;;;12.15;7.63;;;12.10;99.90;;;;;;5040654;28;20115;-74
2022/04/13 02:15:10;;;;;;;10.85;7.10;;;12.10;99.90;;;;;;5043467;28;20045;-72
2022/04/13 02:17:38;;;;;;;10.93;7.03;;;12.00;99.90;;;;;;5047163;28;20073;-74
2022/04/13 02:20:05;;;;;;;10.20;7.10;;;12.00;99.90;;;;;;5047018;28;20506;-74
2022/04/13 02:22:31;;;;;;;11.13;7.78;;;12.00;99.90;;;;;;5042539;28;20068;-74
2022/04/13 02:25:01;;;;;;;10.48;6.45;;;11.90;99.90;;;;;;5045998;28;20493;-74
2022/04/13 02:27:26;;;;;;;10.85;7.38;;;11.90;99.90;;;;;;5038845;28;20053;-74
2022/04/13 02:29:52;;;;;;;13.70;7.90;;;11.90;99.90;;;;;;5046927;28;20056;-74
2022/04/13 02:32:17;;;;;;;10.57;7.85;;;11.80;99.90;;;;;;5040337;28;20045;-74
2022/04/13 02:34:44;;;;;;;12.70;7.88;;;11.80;99.90;;;;;;5046229;28;20543;-74
2022/04/13 02:37:11;;;;;;;11.88;7.00;;;11.70;99.90;;;;;;5041399;28;20120;-74
2022/04/13 02:39:36;;;;;;;12.50;7.85;;;11.80;99.90;;;;;;5038276;28;20068;-74
2022/04/13 02:42:03;;;;;;;10.98;7.20;;;11.70;99.90;;;;;;5032041;28;20041;-74
2022/04/13 02:44:28;;;;;;;9.90;7.38;;;11.70;99.90;;;;;;5038613;28;20050;-74
2022/04/13 02:46:54;;;;;;;11.05;7.45;;;11.60;99.90;;;;;;5043182;28;20392;-73
2022/04/13 02:49:19;;;;;;;13.05;7.82;;;11.60;99.90;;;;;;5042416;28;20040;-74
2022/04/13 02:51:45;;;;;;;14.93;7.90;;;11.60;99.90;;;;;;5051405;28;20423;-74
2022/04/13 02:54:11;;;;;;;13.00;7.90;;;11.50;99.90;;;;;;5041306;28;20128;-74
2022/04/13 02:56:36;;;;;;;12.32;7.85;;;11.50;99.90;;;;;;5056326;28;20057;-74
2022/04/13 02:59:02;;;;;;;12.55;8.57;;;11.50;99.90;;;;;;5046818;28;20044;-74
2022/04/13 03:01:28;;;;;;;11.10;7.82;;;11.50;99.90;;;;;;5044884;28;20090;-74
2022/04/13 03:03:53;;;;;;;14.32;8.45;;;11.50;99.90;;;;;;5043310;28;20037;-74
2022/04/13 03:06:19;;;;;;;14.50;8.50;;;11.50;99.90;;;;;;5043250;28;20162;-74
2022/04/13 03:08:45;;;;;;;12.32;8.02;;;11.40;99.90;;;;;;5041765;28;20813;-74
2022/04/13 03:11:11;;;;;;;11.80;7.72;;;11.40;99.90;;;;;;5045308;28;20627;-74
2022/04/13 03:13:38;;;;;;;16.48;8.05;;;11.40;99.90;;;;;;5042709;28;20037;-73
2022/04/13 03:16:04;;;;;;;13.52;9.05;;;11.40;99.90;;;;;;5045807;28;20045;-74
2022/04/13 03:18:30;;;;;;;16.60;8.27;;;11.30;99.90;;;;;;5041303;28;20041;-74
2022/04/13 03:20:56;;;;;;;10.95;8.43;;;11.30;99.90;;;;;;5041608;28;20447;-73
2022/04/13 03:23:21;;;;;;;15.23;9.02;;;11.30;99.90;;;;;;5040639;28;20041;-74
2022/04/13 03:25:48;;;;;;;14.40;9.45;;;11.30;99.90;;;;;;5039860;28;20049;-73
2022/04/13 03:28:14;;;;;;;17.80;9.88;;;11.30;99.90;;;;;;5036173;28;20069;-74
2022/04/13 03:30:40;;;;;;;16.52;9.85;;;11.30;99.90;;;;;;5035947;28;20084;-73
2022/04/13 03:33:05;;;;;;;16.75;11.15;;;11.20;99.90;;;;;;5041503;28;20040;-74
2022/04/13 03:35:31;;;;;;;15.68;10.52;;;11.30;99.90;;;;;;5036588;28;20056;-73
2022/04/13 03:38:00;;;;;;;14.77;10.02;;;11.30;99.90;;;;;;5046576;28;20041;-74
2022/04/13 03:40:30;;;;;;;15.85;10.40;;;11.30;99.90;;;;;;5045014;28;20048;-74
2022/04/13 03:43:00;;;;;;;16.42;9.90;;;11.30;99.90;;;;;;5043045;28;20044;-74
2022/04/13 03:45:26;;;;;;;13.43;10.60;;;11.30;99.90;;;;;;5038178;28;20081;-74
2022/04/13 03:47:51;;;;;;;16.25;10.43;;;11.30;99.90;;;;;;5047842;28;20080;-74
2022/04/13 03:50:17;;;;;;;15.82;10.27;;;11.30;99.90;;;;;;5042502;28;20049;-74
2022/04/13 03:52:43;;;;;;;18.10;11.63;;;11.30;99.90;;;;;;5038395;28;20042;-73
2022/04/13 03:55:09;;;;;;;16.20;10.70;;;11.40;99.90;;;;;;5047142;28;20033;-73
2022/04/13 03:57:36;;;;;;;18.77;11.45;;;11.40;99.90;;;;;;5037191;28;20128;-73
2022/04/13 04:00:02;;;;;;;19.45;11.75;;;11.40;99.90;;;;;;5038928;28;20538;-74
2022/04/13 04:02:29;;;;;;;19.80;11.63;;;11.50;99.90;;;;;;5043320;28;20082;-73
2022/04/13 04:04:55;;;;;;;18.48;10.93;;;11.50;99.90;;;;;;5049849;28;20481;-74
2022/04/13 04:07:21;;;;;;;20.17;11.55;;;11.50;99.90;;;;;;5034715;28;20100;-74
2022/04/13 04:09:47;;;;;;;23.48;12.93;;;11.50;99.90;;;;;;5036831;28;20076;-73
2022/04/13 04:12:14;;;;;;;19.38;12.07;;;11.50;99.90;;;;;;5032913;28;20053;-74
2022/04/13 04:14:40;;;;;;;19.58;12.15;;;11.60;99.90;;;;;;5036962;28;20061;-73
2022/04/13 04:17:05;;;;;;;22.60;12.35;;;11.60;99.90;;;;;;5039656;28;20041;-74
2022/04/13 04:19:31;;;;;;;20.23;11.30;;;11.60;99.90;;;;;;5042502;28;20049;-74
2022/04/13 04:21:57;;;;;;;19.83;12.60;;;11.70;99.90;;;;;;5036386;28;20050;-73
2022/04/13 04:24:23;;;;;;;22.35;11.25;;;11.70;99.90;;;;;;5045622;28;20400;-73
2022/04/13 04:26:51;;;;;;;20.42;12.10;;;11.70;99.90;;;;;;5037017;28;20401;-73
2022/04/13 04:29:17;;;;;;;19.05;11.95;;;11.70;99.90;;;;;;5038628;28;20054;-74
2022/04/13 04:31:55;;;;;;;26.65;12.18;;;11.60;99.90;;;;;;5037778;28;20452;-74
2022/04/13 04:34:23;;;;;;;18.17;11.60;;;11.60;99.90;;;;;;5045015;28;20048;-74
2022/04/13 04:36:49;;;;;;;20.02;11.07;;;11.60;99.90;;;;;;5036164;28;20374;-73
2022/04/13 04:39:15;;;;;;;17.80;11.73;;;11.60;99.90;;;;;;5038526;28;20049;-73
2022/04/13 04:41:40;;;;;;;21.52;13.07;;;11.60;99.90;;;;;;5040256;28;20068;-74
2022/04/13 04:44:07;;;;;;;18.73;11.85;;;11.50;99.90;;;;;;5059236;28;21173;-74
2022/04/13 04:46:33;;;;;;;21.35;11.98;;;11.50;99.90;;;;;;5042415;28;20411;-73
2022/04/13 04:48:58;;;;;;;19.13;11.60;;;11.50;99.90;;;;;;5037666;28;20038;-73
2022/04/13 04:51:24;;;;;;;21.02;12.52;;;11.50;99.90;;;;;;5041005;28;20034;-74
2022/04/13 04:53:49;;;;;;;18.13;11.02;;;11.50;99.90;;;;;;5042728;28;20842;-74
2022/04/13 04:56:15;;;;;;;19.23;12.15;;;11.50;99.90;;;;;;5024837;28;20074;-73
2022/04/13 04:58:41;;;;;;;20.40;13.13;;;11.50;99.90;;;;;;5040151;28;20049;-74
2022/04/13 05:01:07;;;;;;;18.48;12.38;;;11.50;99.90;;;;;;5044347;28;20051;-74
2022/04/13 05:03:33;;;;;;;22.45;12.45;;;11.50;99.90;;;;;;5037321;28;20052;-73
2022/04/13 05:05:59;;;;;;;18.25;12.63;;;11.40;99.90;;;;;;5046624;28;20061;-74
2022/04/13 05:08:25;;;;;;;18.55;12.57;;;11.50;99.90;;;;;;5043178;28;20041;-74
2022/04/13 05:10:51;;;;;;;21.45;12.18;;;11.50;99.90;;;;;;5043829;28;20050;-74
2022/04/13 05:13:21;;;;;;;21.00;12.20;;;11.50;99.90;;;;;;5050047;28;20493;-74
2022/04/13 05:15:47;;;;;;;20.42;12.38;;;11.50;99.90;;;;;;5038344;28;20049;-74
2022/04/13 05:18:13;;;;;;;22.05;12.57;;;11.50;99.90;;;;;;5048994;28;20056;-74
2022/04/13 05:20:40;;;;;;;28.58;12.93;;;11.60;99.90;;;;;;5046027;28;20045;-74
2022/04/13 05:23:05;;;;;;;21.05;12.60;;;11.60;99.90;;;;;;5031027;28;20030;-74
2022/04/13 05:25:31;;;;;;;20.85;12.82;;;11.60;99.90;;;;;;5045989;28;20103;-74
2022/04/13 05:27:56;;;;;;;20.30;12.35;;;11.70;99.90;;;;;;5035731;28;20053;-73
2022/04/13 05:30:22;;;;;;;23.15;13.07;;;11.70;99.90;;;;;;5040512;28;20096;-74
2022/04/13 05:32:58;;;;;;;20.50;13.18;;;11.80;99.90;;;;;;5047544;28;20114;-76
2022/04/13 05:35:28;;;;;;;19.80;12.70;;;11.80;99.90;;;;;;5050233;28;20072;-76
2022/04/13 05:37:54;;;;;;;23.55;13.48;;;11.90;99.90;;;;;;5046632;28;20052;-76
2022/04/13 05:40:22;;;;;;;19.08;12.68;;;11.90;99.90;;;;;;5043670;28;20523;-76
2022/04/13 05:42:48;;;;;;;23.17;14.00;;;11.90;99.90;;;;;;5037164;28;20049;-77
2022/04/13 05:45:14;;;;;;;17.88;12.90;;;11.90;99.90;;;;;;5047561;28;20077;-78
2022/04/13 05:47:44;;;;;;;20.95;13.48;;;11.90;99.90;;;;;;5043340;28;20062;-77
2022/04/13 05:50:12;;;;;;;20.25;13.43;;;11.90;99.90;;;;;;5044145;28;20049;-77
2022/04/13 05:52:39;;;;;;;25.35;14.27;;;11.90;99.90;;;;;;5047434;28;20067;-78
2022/04/13 05:55:06;;;;;;;21.17;13.48;;;11.90;99.90;;;;;;5045042;28;20131;-77
2022/04/13 05:57:32;;;;;;;23.27;13.70;;;11.80;99.90;;;;;;5045219;28;20053;-77
2022/04/13 05:59:57;;;;;;;24.17;13.85;;;11.80;99.90;;;;;;5047162;28;20131;-77
2022/04/13 06:02:23;;;;;;;24.13;14.60;;;11.80;99.90;;;;;;5045925;28;20049;-77
2022/04/13 06:04:48;;;;;;;19.90;13.05;;;11.80;99.90;;;;;;5042242;28;20044;-77
2022/04/13 06:07:15;;;;;;;24.50;14.13;;;11.80;99.90;;;;;;5049469;28;20041;-77
2022/04/13 06:09:40;;;;;;;21.58;13.77;;;11.80;99.90;;;;;;5041530;28;20064;-76
2022/04/13 06:12:08;;;;;;;29.30;14.85;;;11.80;99.90;;;;;;5041741;28;20033;-77
2022/04/13 06:14:34;;;;;;;19.35;13.60;;;11.80;99.90;;;;;;5043696;28;20091;-75
2022/04/13 06:16:59;;;;;;;22.25;15.43;;;12.10;99.90;;;;;;5037727;28;20084;-78
2022/04/13 06:19:25;;;;;;;21.38;13.90;;;11.80;99.90;;;;;;5047080;28;20186;-76
2022/04/13 06:21:50;;;;;;;23.35;14.73;;;11.80;99.90;;;;;;5042368;28;20106;-77
2022/04/13 06:24:16;;;;;;;24.48;15.25;;;11.90;99.90;;;;;;5043350;28;20504;-79
2022/04/13 06:26:43;;;;;;;25.08;13.77;;;11.90;99.90;;;;;;5032619;28;20053;-80
2022/04/13 06:29:12;;;;;;;25.60;15.35;;;12.00;99.90;;;;;;5034153;28;20088;-80
2022/04/13 06:31:39;;;;;;;24.75;15.18;;;12.10;99.90;;;;;;5044126;28;20126;-80
2022/04/13 06:34:04;;;;;;;22.48;14.50;;;12.10;99.90;;;;;;5052614;28;20243;-80
2022/04/13 06:36:30;;;;;;;24.08;14.73;;;12.20;99.90;;;;;;5053662;28;20552;-80
2022/04/13 06:38:57;;;;;;;24.55;14.98;;;12.30;99.90;;;;;;5052159;28;20060;-77
2022/04/13 06:41:24;;;;;;;22.60;14.65;;;12.40;99.90;;;;;;5047443;28;20110;-71
2022/04/13 06:43:52;;;;;;;23.52;14.05;;;12.50;99.90;;;;;;5046708;28;20497;-72
2022/04/13 06:46:18;;;;;;;25.30;15.70;;;12.60;99.90;;;;;;5043480;28;20055;-76
2022/04/13 06:48:43;;;;;;;23.40;15.23;;;12.80;99.90;;;;;;5031482;28;20037;-76
2022/04/13 06:51:09;;;;;;;22.42;14.73;;;12.90;99.90;;;;;;5062883;28;20048;-76
2022/04/13 06:53:34;;;;;;;22.77;14.57;;;13.00;99.90;;;;;;5068172;28;20047;-76
2022/04/13 06:56:00;;;;;;;22.02;14.55;;;13.20;99.90;;;;;;5065270;28;20048;-76
2022/04/13 06:58:25;;;;;;;22.85;14.13;;;13.20;99.90;;;;;;5057109;28;20056;-76
2022/04/13 07:00:51;;;;;;;23.58;15.45;;;13.30;99.90;;;;;;5051736;28;20033;-76
2022/04/13 07:03:17;;;;;;;21.10;13.77;;;13.40;99.90;;;;;;5052691;28;20052;-77
2022/04/13 07:05:42;;;;;;;32.35;14.43;;;13.50;99.90;;;;;;5052061;28;20049;-76
2022/04/13 07:08:08;;;;;;;27.77;13.70;;;13.50;99.90;;;;;;5052005;28;20072;-76
2022/04/13 07:10:34;;;;;;;23.05;13.43;;;13.60;99.90;;;;;;5052147;28;20051;-76
2022/04/13 07:13:00;;;;;;;22.70;13.45;;;13.60;99.90;;;;;;5050959;28;20052;-76
2022/04/13 07:15:26;;;;;;;21.70;13.30;;;13.60;99.90;;;;;;5051208;28;20033;-76
2022/04/13 07:17:53;;;;;;;21.08;13.82;;;13.60;99.90;;;;;;5051298;28;20451;-76
2022/04/13 07:20:18;;;;;;;29.98;15.25;;;13.60;99.90;;;;;;5052059;28;20416;-77
2022/04/13 07:22:49;;;;;;;21.83;14.30;;;13.60;99.90;;;;;;5049854;28;20106;-76
2022/04/13 07:25:17;;;;;;;22.17;14.52;;;13.60;99.90;;;;;;5051858;28;20143;-76
2022/04/13 07:27:44;;;;;;;26.30;15.43;;;13.60;99.90;;;;;;5051947;28;20064;-76
2022/04/13 07:30:10;;;;;;;23.85;14.82;;;13.60;99.90;;;;;;5051366;28;20392;-77
2022/04/13 07:32:36;;;;;;;23.30;13.98;;;13.70;99.90;;;;;;5051602;28;20048;-76
2022/04/13 07:35:05;;;;;;;21.15;13.55;;;13.70;99.90;;;;;;5060344;28;20041;-76
2022/04/13 07:37:31;;;;;;;22.48;14.00;;;13.80;99.90;;;;;;5070960;28;20040;-76
2022/04/13 07:39:58;;;;;;;21.58;13.73;;;13.90;99.90;;;;;;5071893;28;20080;-76
2022/04/13 07:42:25;;;;;;;21.60;13.05;;;14.00;99.90;;;;;;5066805;28;20083;-77
2022/04/13 07:44:51;;;;;;;22.52;13.30;;;14.10;99.90;;;;;;5052170;28;20056;-77
2022/04/13 07:47:18;;;;;;;23.05;13.05;;;14.30;99.90;;;;;;5050214;28;20047;-77
2022/04/13 07:49:44;;;;;;;21.30;12.48;;;14.40;99.90;;;;;;5039412;28;20051;-77
2022/04/13 07:52:10;;;;;;;22.65;13.23;;;14.40;99.90;;;;;;5047246;28;20049;-76
2022/04/13 07:54:36;;;;;;;21.02;13.05;;;14.50;99.90;;;;;;5044359;28;20041;-77
2022/04/13 07:57:02;;;;;;;22.67;12.57;;;14.50;99.90;;;;;;5044408;28;20069;-77
2022/04/13 07:59:28;;;;;;;20.13;12.88;;;14.50;99.90;;;;;;5035841;28;20469;-77
2022/04/13 08:01:54;;;;;;;24.90;13.43;;;14.50;99.90;;;;;;5040105;28;20059;-76
2022/04/13 08:04:20;;;;;;;19.10;12.07;;;14.50;99.90;;;;;;5047452;28;20033;-76
2022/04/13 08:06:45;;;;;;;24.88;12.50;;;14.60;99.90;;;;;;5042802;28;20394;-76
2022/04/13 08:09:11;;;;;;;22.75;11.82;;;14.60;99.90;;;;;;5050890;28;20051;-77
2022/04/13 08:11:36;;;;;;;18.50;11.82;;;14.60;99.90;;;;;;5049019;28;20041;-77
2022/04/13 08:14:02;;;;;;;21.95;11.88;;;14.70;99.90;;;;;;5040661;28;20044;-76
2022/04/13 08:16:28;;;;;;;22.25;11.50;;;14.70;99.90;;;;;;5038860;28;20041;-76
2022/04/13 08:18:53;;;;;;;22.92;13.38;;;14.80;99.90;;;;;;5050431;28;20384;-77
2022/04/13 08:21:19;;;;;;;20.63;12.40;;;14.70;99.90;;;;;;5038897;28;20046;-77
2022/04/13 08:23:44;;;;;;;21.38;11.90;;;14.80;99.90;;;;;;5056053;28;20123;-77
2022/04/13 08:26:10;;;;;;;19.75;11.93;;;14.90;99.90;;;;;;5037483;28;20460;-77
2022/04/13 08:28:36;;;;;;;20.95;12.07;;;14.90;99.90;;;;;;5037863;28;20045;-77
2022/04/13 08:31:04;;;;;;;21.35;11.48;;;15.00;99.90;;;;;;5036448;28;20052;-77
2022/04/13 08:33:33;;;;;;;17.10;11.00;;;15.10;99.90;;;;;;5037872;28;20069;-77
2022/04/13 08:35:58;;;;;;;18.60;10.90;;;15.20;99.90;;;;;;5042884;28;20038;-77
2022/04/13 08:38:24;;;;;;;21.08;12.57;;;15.30;99.90;;;;;;5040931;28;20095;-77
2022/04/13 08:40:56;;;;;;;18.02;11.15;;;15.40;99.90;;;;;;5037872;28;20383;-77
2022/04/13 08:43:32;;;;;;;17.85;11.02;;;15.50;99.90;;;;;;5046525;28;20128;-77
2022/04/13 08:46:01;;;;;;;18.25;10.35;;;15.50;99.90;;;;;;5029425;28;20057;-77
2022/04/13 08:48:27;;;;;;;16.20;11.10;;;15.50;99.90;;;;;;5042948;28;20037;-77
2022/04/13 08:51:02;;;;;;;18.38;10.45;;;15.60;99.90;;;;;;5053406;28;20392;-77
2022/04/13 08:53:30;;;;;;;18.15;10.52;;;15.60;99.90;;;;;;5042092;28;20099;-77
2022/04/13 08:55:58;;;;;;;16.08;10.25;;;15.70;99.90;;;;;;5069697;28;20123;-77
2022/04/13 08:58:38;;;;;;;16.80;10.23;;;15.80;99.90;;;;;;5048168;28;20045;-77
2022/04/13 09:01:16;;;;;;;16.70;9.50;;;15.70;99.90;;;;;;5042000;28;20045;-77
2022/04/13 09:03:46;;;;;;;17.63;10.40;;;15.80;99.90;;;;;;5032437;28;20059;-77
2022/04/13 09:06:13;;;;;;;16.25;9.98;;;15.90;99.90;;;;;;5032289;28;20064;-77
2022/04/13 09:09:01;;;;;;;15.95;9.55;;;16.00;99.90;;;;;;5029915;28;20056;-77
2022/04/13 09:11:28;;;;;;;13.98;8.82;;;16.20;99.90;;;;;;5044363;28;20045;-77
2022/04/13 09:13:54;;;;;;;13.07;8.75;;;16.20;99.90;;;;;;5045659;28;20377;-77
2022/04/13 09:16:19;;;;;;;16.17;10.23;;;16.20;99.90;;;;;;5050389;28;20055;-77
2022/04/13 09:18:46;;;;;;;22.40;9.98;;;16.20;99.90;;;;;;5046031;28;20056;-77
2022/04/13 09:21:13;;;;;;;15.95;10.10;;;16.30;99.90;;;;;;5040005;28;20370;-77
2022/04/13 09:23:40;;;;;;;18.77;10.13;;;16.40;99.90;;;;;;5041661;28;20059;-77
2022/04/13 09:26:07;;;;;;;18.48;10.05;;;16.50;99.90;;;;;;5036386;28;20033;-76
2022/04/13 09:28:33;;;;;;;17.42;9.80;;;16.50;99.90;;;;;;5045914;28;20072;-77
2022/04/13 09:31:00;;;;;;;15.45;8.77;;;16.60;99.90;;;;;;5042985;28;20623;-77
2022/04/13 09:33:25;;;;;;;15.57;8.93;;;16.70;99.90;;;;;;5028873;28;20505;-77
2022/04/13 09:35:53;;;;;;;15.32;8.35;;;16.80;99.90;;;;;;5048584;28;20049;-78
2022/04/13 09:38:19;;;;;;;14.52;8.75;;;16.90;99.90;;;;;;5043721;28;20542;-76
2022/04/13 09:40:45;;;;;;;15.07;8.93;;;17.00;99.90;;;;;;5040048;28;20397;-76
2022/04/13 09:43:12;;;;;;;10.13;7.57;;;17.10;99.90;;;;;;5041765;28;20044;-76
2022/04/13 09:45:45;;;;;;;14.05;7.90;;;17.20;99.90;;;;;;5038861;28;20570;-76
2022/04/13 09:48:13;;;;;;;13.35;7.93;;;17.30;99.90;;;;;;5050586;28;20057;-76
2022/04/13 09:50:40;;;;;;;15.50;8.27;;;17.40;99.90;;;;;;5050868;28;20131;-77
2022/04/13 09:53:07;;;;;;;11.52;6.85;;;17.50;99.90;;;;;;5066613;28;20055;-77
2022/04/13 09:55:53;;;;;;;14.25;7.28;;;17.60;99.90;;;;;;5040449;28;20095;-77
2022/04/13 09:58:30;;;;;;;11.77;6.72;;;17.60;99.90;;;;;;5053324;28;20049;-81
2022/04/13 10:01:06;;;;;;;12.18;6.50;;;17.70;99.90;;;;;;5053926;28;20044;-81
2022/04/13 10:03:31;;;;;;;12.45;6.03;;;17.80;99.90;;;;;;5049829;28;20045;-79
2022/04/13 10:05:59;;;;;;;11.68;6.10;;;18.00;99.90;;;;;;5051918;28;20041;-78
2022/04/13 10:08:26;;;;;;;8.80;4.75;;;18.10;99.90;;;;;;5054066;28;20116;-78
2022/04/13 10:10:56;;;;;;;10.07;5.90;;;18.20;99.90;;;;;;5053484;28;20543;-79
2022/04/13 10:13:35;;;;;;;8.40;5.00;;;18.30;99.90;;;;;;5035872;28;20059;-79
2022/04/13 10:16:03;;;;;;;11.38;6.40;;;18.40;99.90;;;;;;5053503;28;20073;-79
2022/04/13 10:18:32;;;;;;;15.15;5.88;;;18.60;99.90;;;;;;5038990;28;20088;-84
2022/04/13 10:20:58;;;;;;;9.48;5.45;;;18.70;99.90;;;;;;5038876;28;20060;-79
2022/04/13 10:23:24;;;;;;;12.15;5.78;;;18.90;99.90;;;;;;5046551;28;20049;-79
2022/04/13 10:26:08;;;;;;;9.40;5.72;;;19.10;99.90;;;;;;5041106;28;20481;-79
2022/04/13 10:28:45;;;;;;;11.10;4.20;;;19.30;99.90;;;;;;5034405;28;20049;-79
2022/04/13 10:31:10;;;;;;;8.82;4.60;;;19.40;99.90;;;;;;5044159;28;20044;-79
2022/04/13 10:33:45;;;;;;;10.43;4.55;;;19.40;99.90;;;;;;5043213;28;20040;-79
2022/04/13 10:36:11;;;;;;;12.27;4.53;;;19.50;99.90;;;;;;5042234;28;20355;-78
2022/04/13 10:38:37;;;;;;;7.95;3.03;;;19.60;99.90;;;;;;5041903;28;20071;-79
2022/04/13 10:41:03;;;;;;;8.27;4.10;;;19.70;99.90;;;;;;5031664;28;20572;-78
2022/04/13 10:43:29;;;;;;;7.00;4.53;;;19.80;99.90;;;;;;5042270;28;20046;-78
2022/04/13 10:45:57;;;;;;;9.20;4.10;;;19.90;99.90;;;;;;5042445;28;20499;-79
2022/04/13 10:48:29;;;;;;;7.68;3.65;;;19.90;99.90;;;;;;5033413;28;20054;-79
2022/04/13 10:51:07;;;;;;;8.95;4.57;;;19.80;99.90;;;;;;5045687;28;20044;-79
2022/04/13 10:53:52;;;;;;;8.57;4.60;;;19.70;99.90;;;;;;5038861;28;20046;-78
2022/04/13 10:56:23;;;;;;;9.32;4.95;;;19.70;99.90;;;;;;5044324;28;20061;-79
2022/04/13 10:59:00;;;;;;;8.00;4.45;;;19.70;99.90;;;;;;5035088;28;20132;-78
2022/04/13 11:01:30;;;;;;;8.65;3.55;;;19.80;99.90;;;;;;5048654;28;20049;-79
2022/04/13 11:03:57;;;;;;;8.25;3.53;;;19.90;99.90;;;;;;5043021;28;20048;-79
2022/04/13 11:06:24;;;;;;;8.75;4.03;;;19.90;99.90;;;;;;5033615;28;20128;-79
2022/04/13 11:09:35;;;;;;;11.15;3.60;;;19.90;99.90;;;;;;5038086;28;20080;-79
2022/04/13 11:12:01;;;;;;;5.35;2.88;;;20.00;99.90;;;;;;5041630;28;20439;-79
2022/04/13 11:14:27;;;;;;;7.50;2.90;;;20.10;99.90;;;;;;5041903;28;20579;-79
2022/04/13 11:17:05;;;;;;;7.40;3.35;;;20.20;99.90;;;;;;5042361;28;20077;-79
2022/04/13 11:19:31;;;;;;;9.38;2.40;;;20.30;99.90;;;;;;5051207;28;20076;-79
2022/04/13 11:21:57;;;;;;;8.88;2.63;;;20.40;99.90;;;;;;5043134;28;20445;-79
2022/04/13 11:24:58;;;;;;;7.72;2.47;;;20.50;99.90;;;;;;5044845;28;20496;-79
2022/04/13 11:27:25;;;;;;;9.07;3.10;;;20.50;99.90;;;;;;5039449;28;20056;-78
2022/04/13 11:30:02;;;;;;;6.75;3.40;;;20.50;99.90;;;;;;5043222;28;20095;-78
2022/04/13 11:32:33;;;;;;;6.70;3.17;;;20.50;99.90;;;;;;5044576;28;20191;-78
2022/04/13 11:35:00;;;;;;;6.22;3.25;;;20.50;99.90;;;;;;5039690;28;20445;-79
2022/04/13 11:37:33;;;;;;;6.50;3.00;;;20.60;99.90;;;;;;5035789;28;20405;-78
2022/04/13 11:40:05;;;;;;;8.05;2.55;;;20.70;99.90;;;;;;5049080;28;20052;-78
2022/04/13 11:42:35;;;;;;;7.40;2.45;;;20.70;99.90;;;;;;5047360;28;20051;-79
2022/04/13 11:45:03;;;;;;;4.57;1.92;;;20.70;99.90;;;;;;5039331;28;20132;-79
2022/04/13 11:47:40;;;;;;;4.90;1.75;;;20.60;99.90;;;;;;5043302;28;20492;-79
2022/04/13 11:50:12;;;;;;;5.47;1.75;;;20.50;99.60;;;;;;5041090;28;20052;-79
2022/04/13 11:53:06;;;;;;;5.68;2.03;;;20.40;99.90;;;;;;5035436;28;20080;-79
2022/04/13 11:55:44;;;;;;;6.45;2.30;;;20.30;99.90;;;;;;5034301;28;20049;-79
2022/04/13 11:58:10;;;;;;;8.73;2.88;;;20.20;99.90;;;;;;5045352;28;20048;-79
2022/04/13 12:00:35;;;;;;;6.85;2.95;;;20.10;99.90;;;;;;5045902;28;20083;-78
2022/04/13 12:03:01;;;;;;;9.02;3.60;;;19.90;99.90;;;;;;5045744;28;20057;-79
2022/04/13 12:05:28;;;;;;;7.55;3.22;;;19.70;99.90;;;;;;5039739;28;20049;-79
2022/04/13 12:07:53;;;;;;;10.10;3.33;;;19.40;99.90;;;;;;5035108;28;20045;-78
2022/04/13 12:10:19;;;;;;;8.38;2.97;;;19.30;99.90;;;;;;5031647;28;20048;-79
2022/04/13 12:12:55;;;;;;;6.95;2.83;;;19.20;99.90;;;;;;5042217;28;20041;-78
2022/04/13 12:15:21;;;;;;;7.47;2.72;;;19.20;99.90;;;;;;5043967;28;20091;-79
2022/04/13 12:17:47;;;;;;;8.68;3.28;;;19.20;99.90;;;;;;5041764;28;20044;-78
2022/04/13 12:20:32;;;;;;;9.82;3.00;;;19.30;99.90;;;;;;5043775;28;20049;-81
2022/04/13 12:23:25;;;;;;;9.75;2.90;;;19.40;99.90;;;;;;5044124;28;20041;-78
2022/04/13 12:25:53;;;;;;;10.40;3.22;;;19.40;99.90;;;;;;5042097;28;20087;-80
2022/04/13 12:28:20;;;;;;;8.43;3.75;;;19.50;99.90;;;;;;5042618;28;20124;-80
2022/04/13 12:30:58;;;;;;;5.53;2.22;;;19.50;99.90;;;;;;5037951;28;21043;-79
2022/04/13 12:33:26;;;;;;;6.22;1.55;;;19.50;99.90;;;;;;5037328;28;20091;-79
2022/04/13 12:35:59;;;;;;;4.55;1.20;;;19.40;99.90;;;;;;5044507;28;20055;-79
2022/04/13 12:38:29;;;;;;;5.05;1.20;;;19.20;99.90;;;;;;5036751;28;20076;-80